Time;durP1;ratioP1;P1;durP2;ratioP2;P2;SDS_P1;SDS_P2;PMS_P1;PMS_P2;Temp;Humidity;BMP_temperature;BMP_pressure;BME280_temperature;BME280_humidity;BME280_pressure;Samples;Min_cycle;Max_cycle;Signal;HPM_P1;HPM_P2
2021/09/05 00:00:00;;;;;;;42.50;27.67;;;;;;;11.40;96.14;101769.13;2090356;28;20064;-61
2021/09/05 00:01:00;;;;;;;38.33;24.87;;;;;;;11.38;95.91;101768.31;2090348;28;20033;-62
2021/09/05 00:02:00;;;;;;;36.93;25.07;;;;;;;11.40;96.55;101764.75;2090308;28;20033;-61
2021/09/05 00:03:00;;;;;;;39.43;24.77;;;;;;;11.41;96.33;101770.84;2090413;28;20031;-61
2021/09/05 00:04:01;;;;;;;31.50;21.10;;;;;;;11.38;96.38;101765.69;2090203;28;20681;-61
2021/09/05 00:05:02;;;;;;;33.33;24.15;;;;;;;11.38;96.07;101763.94;2089629;28;20025;-60
2021/09/05 00:06:02;;;;;;;40.30;25.90;;;;;;;11.38;96.05;101766.56;2089623;28;20028;-61
2021/09/05 00:07:02;;;;;;;39.17;25.97;;;;;;;11.38;96.19;101763.09;2081335;28;20026;-61
2021/09/05 00:08:05;;;;;;;36.22;25.33;;;;;;;11.37;96.00;101766.59;2081393;28;20292;-62
2021/09/05 00:09:05;;;;;;;38.83;25.05;;;;;;;11.37;96.57;101769.22;2090403;28;20025;-61
2021/09/05 00:10:06;;;;;;;34.70;22.13;;;;;;;11.37;96.03;101769.22;2090384;28;20386;-61
2021/09/05 00:11:07;;;;;;;39.38;22.63;;;;;;;11.35;96.32;101757.97;2090270;28;20021;-61
2021/09/05 00:12:08;;;;;;;36.07;25.07;;;;;;;11.33;96.30;101771.91;2090177;28;20024;-61
2021/09/05 00:13:08;;;;;;;;;;;;;;;11.33;96.41;101771.09;2090633;28;20505;-61
2021/09/05 00:14:08;;;;;;;34.45;22.88;;;;;;;11.32;96.55;101772.84;2090217;28;19909;-61
2021/09/05 00:15:10;;;;;;;33.70;24.07;;;;;;;11.32;96.19;101770.22;2090306;28;20111;-60
2021/09/05 00:16:10;;;;;;;38.28;23.33;;;;;;;11.31;95.87;101768.50;2089453;28;20063;-61
2021/09/05 00:17:11;;;;;;;38.43;22.27;;;;;;;11.32;96.43;101764.13;2081249;28;20045;-61
2021/09/05 00:18:11;;;;;;;37.53;22.10;;;;;;;11.28;95.99;101768.59;2081338;28;20024;-60
2021/09/05 00:19:11;;;;;;;42.23;24.97;;;;;;;11.29;96.05;101765.09;2081408;28;20430;-61
2021/09/05 00:20:12;;;;;;;34.57;24.67;;;;;;;11.28;96.10;101768.59;2090142;28;20023;-60
2021/09/05 00:21:13;;;;;;;36.55;23.25;;;;;;;11.27;96.27;101771.25;2090312;28;20078;-61
2021/09/05 00:22:13;;;;;;;35.10;23.95;;;;;;;11.25;96.88;101770.47;2089516;28;20083;-60
2021/09/05 00:23:14;;;;;;;35.87;23.97;;;;;;;11.24;96.08;101772.22;2089676;28;20068;-61
2021/09/05 00:24:14;;;;;;;36.20;24.40;;;;;;;11.23;96.38;101767.91;2090176;28;20108;-60
2021/09/05 00:25:14;;;;;;;37.53;24.00;;;;;;;11.23;96.73;101765.28;2089507;28;20422;-61
2021/09/05 00:26:15;;;;;;;36.90;24.47;;;;;;;11.23;95.90;101772.25;2089589;28;20100;-61
2021/09/05 00:27:15;;;;;;;38.50;24.17;;;;;;;11.22;96.77;101776.63;2090181;28;20279;-61
2021/09/05 00:28:15;;;;;;;35.10;22.70;;;;;;;11.23;96.62;101770.50;2090112;28;20478;-61
2021/09/05 00:29:17;;;;;;;39.30;24.73;;;;;;;11.22;96.74;101774.00;2090127;28;20112;-61
2021/09/05 00:30:17;;;;;;;35.65;23.90;;;;;;;11.20;96.83;101775.81;2090197;28;20212;-61
2021/09/05 00:31:17;;;;;;;38.47;23.60;;;;;;;11.19;96.63;101768.91;2090112;28;20025;-63
2021/09/05 00:32:18;;;;;;;39.03;24.30;;;;;;;11.19;96.52;101774.97;2090245;28;20379;-61
2021/09/05 00:33:18;;;;;;;38.47;24.87;;;;;;;11.19;96.15;101768.91;2081204;28;20120;-61
2021/09/05 00:34:18;;;;;;;32.07;20.13;;;;;;;11.19;96.28;101771.50;2081587;28;20036;-61
2021/09/05 00:35:18;;;;;;;33.93;23.20;;;;;;;11.17;96.69;101776.78;2091705;28;20029;-61
2021/09/05 00:36:19;;;;;;;32.27;21.83;;;;;;;11.16;96.64;101771.59;2091905;28;20818;-61
2021/09/05 00:37:19;;;;;;;42.47;24.37;;;;;;;11.16;96.34;101769.81;2091801;28;20493;-61
2021/09/05 00:38:19;;;;;;;33.97;20.13;;;;;;;11.15;96.45;101764.66;2091723;28;20478;-60
2021/09/05 00:39:19;;;;;;;33.07;21.47;;;;;;;11.13;96.75;101763.84;2091689;28;20505;-60
2021/09/05 00:40:20;;;;;;;36.37;24.17;;;;;;;11.14;96.70;101768.16;2091706;28;20100;-61
2021/09/05 00:41:20;;;;;;;34.93;23.00;;;;;;;11.13;96.80;101764.72;2091728;28;20028;-61
2021/09/05 00:42:26;;;;;;;34.47;24.00;;;;;;;11.12;96.56;101762.13;2091703;28;20036;-61
2021/09/05 00:43:26;;;;;;;32.17;23.80;;;;;;;11.11;96.38;101765.63;2091806;28;20059;-61
2021/09/05 00:44:26;;;;;;;38.33;22.83;;;;;;;11.08;96.27;101762.22;2082799;28;20010;-61
2021/09/05 00:45:27;;;;;;;36.40;22.97;;;;;;;11.11;96.62;101763.03;2082865;28;20037;-60
2021/09/05 00:46:28;;;;;;;38.40;23.90;;;;;;;11.08;96.17;101762.22;2082849;28;20545;-61
2021/09/05 00:47:28;;;;;;;33.00;22.70;;;;;;;11.06;96.60;101758.78;2082755;28;20442;-60
2021/09/05 00:48:29;;;;;;;36.47;23.27;;;;;;;11.07;96.75;101760.53;2082928;28;20064;-61
2021/09/05 00:49:29;;;;;;;32.20;18.43;;;;;;;11.05;96.35;101756.25;2091590;28;20047;-61
2021/09/05 00:50:30;;;;;;;33.40;21.23;;;;;;;11.04;96.80;101752.78;2091712;28;20029;-61
2021/09/05 00:51:35;;;;;;;;;;;;;;;11.06;96.84;101764.00;2092049;28;20078;-60
2021/09/05 00:52:36;;;;;;;30.42;19.73;;;;;;;11.06;96.52;101757.94;2082760;28;19909;-60
2021/09/05 00:53:36;;;;;;;33.42;20.35;;;;;;;11.04;96.66;101760.59;2082828;28;20097;-60
2021/09/05 00:54:37;;;;;;;31.53;22.47;;;;;;;11.02;96.46;101757.16;2091022;28;20405;-60
2021/09/05 00:55:38;;;;;;;29.95;21.52;;;;;;;11.02;96.79;101762.41;2091050;28;20431;-59
2021/09/05 00:56:41;;;;;;;;;;;;;;;11.01;96.36;101760.69;2091372;28;20031;-60
2021/09/05 00:57:44;;;;;;;30.45;21.65;;;;;;;11.01;96.53;101750.25;2091065;28;20400;-61
2021/09/05 00:58:46;;;;;;;31.02;21.10;;;;;;;11.03;96.23;101752.81;2091613;28;20059;-61
2021/09/05 00:59:48;;;;;;;33.90;20.50;;;;;;;11.01;97.01;101755.47;2091703;28;20087;-60
2021/09/05 01:00:48;;;;;;;29.73;19.13;;;;;;;11.02;96.64;101759.78;2082673;28;20068;-61
2021/09/05 01:01:49;;;;;;;32.27;20.30;;;;;;;11.02;96.72;101759.78;2082876;28;20031;-61
2021/09/05 01:02:49;;;;;;;32.65;20.95;;;;;;;11.03;97.11;101758.91;2091507;28;20028;-61
2021/09/05 01:03:49;;;;;;;36.27;21.20;;;;;;;11.02;96.47;101751.94;2091681;28;20028;-60
2021/09/05 01:04:50;;;;;;;30.30;21.03;;;;;;;11.01;96.88;101758.06;2091797;28;20021;-60
2021/09/05 01:05:50;;;;;;;29.53;20.90;;;;;;;11.01;96.17;101755.47;2091522;28;20537;-60
2021/09/05 01:06:50;;;;;;;29.87;18.30;;;;;;;11.04;97.12;101755.38;2091440;28;20021;-60
2021/09/05 01:07:51;;;;;;;36.80;19.20;;;;;;;11.03;96.64;101758.91;2090884;28;20104;-59
2021/09/05 01:08:52;;;;;;;33.27;23.47;;;;;;;11.03;96.80;101751.06;2090984;28;20131;-60
2021/09/05 01:09:53;;;;;;;33.78;20.50;;;;;;;11.01;96.88;101750.25;2091482;28;20044;-61
2021/09/05 01:10:54;;;;;;;31.43;18.83;;;;;;;11.02;96.84;101754.56;2091470;28;20037;-60
2021/09/05 01:11:56;;;;;;;31.30;20.40;;;;;;;11.02;96.62;101757.16;2090851;28;20076;-61
2021/09/05 01:12:57;;;;;;;34.25;21.58;;;;;;;11.03;96.81;101753.69;2090886;28;20028;-61
2021/09/05 01:13:58;;;;;;;;;;;;;;;11.04;97.18;101755.38;2091901;28;20036;-61
2021/09/05 01:14:59;;;;;;;31.70;21.33;;;;;;;11.04;96.64;101755.38;2091588;28;19908;-60
2021/09/05 01:15:59;;;;;;;31.88;22.63;;;;;;;11.04;96.66;101750.16;2091485;28;20037;-60
2021/09/05 01:16:59;;;;;;;33.73;20.57;;;;;;;11.04;96.88;101752.78;2091294;28;20053;-60
2021/09/05 01:17:59;;;;;;;35.00;22.70;;;;;;;11.03;96.76;101753.69;2091454;28;20078;-60
2021/09/05 01:19:03;;;;;;;34.53;21.50;;;;;;;11.05;96.84;101757.09;2091530;28;20120;-60
2021/09/05 01:20:09;;;;;;;33.58;22.63;;;;;;;11.05;96.70;101746.63;2091487;28;20032;-60
2021/09/05 01:21:09;;;;;;;35.45;22.17;;;;;;;11.04;96.39;101755.38;2090829;28;20021;-60
2021/09/05 01:22:09;;;;;;;32.27;20.80;;;;;;;11.03;96.59;101748.47;2082625;28;20036;-61
2021/09/05 01:23:10;;;;;;;37.03;21.87;;;;;;;11.03;96.53;101748.47;2074336;28;20025;-61
2021/09/05 01:24:11;;;;;;;33.42;21.92;;;;;;;11.02;96.80;101746.72;2082612;28;20037;-61
2021/09/05 01:25:11;;;;;;;;;;;;;;;11.00;96.52;101740.72;2091855;28;20078;-60
2021/09/05 01:26:12;;;;;;;39.85;21.55;;;;;;;11.00;96.75;101748.53;2091352;28;19909;-60
2021/09/05 01:27:12;;;;;;;38.30;22.35;;;;;;;10.99;96.73;101741.63;2091463;28;20025;-60
2021/09/05 01:28:12;;;;;;;34.70;22.47;;;;;;;10.98;96.57;101739.03;2090683;28;20025;-58
2021/09/05 01:29:14;;;;;;;37.07;21.83;;;;;;;10.98;96.56;101739.88;2090735;28;20024;-60
2021/09/05 01:30:14;;;;;;;;;;;;;;;10.99;96.50;101746.84;2082986;28;20064;-60
2021/09/05 01:31:14;;;;;;;38.10;19.48;;;;;;;10.99;97.03;101736.41;2082584;28;19908;-60
2021/09/05 01:32:15;;;;;;;36.03;23.43;;;;;;;11.00;96.98;101743.31;2082391;28;20033;-59
2021/09/05 01:33:16;;;;;;;37.53;22.65;;;;;;;11.00;97.06;101743.31;2082486;28;20032;-60
2021/09/05 01:34:18;;;;;;;36.63;23.33;;;;;;;11.00;96.95;101740.72;2091327;28;20024;-61
2021/09/05 01:35:18;;;;;;;31.05;19.83;;;;;;;10.99;97.02;101743.34;2091282;28;20038;-60
2021/09/05 01:36:19;;;;;;;33.90;20.57;;;;;;;10.96;96.63;101746.94;2090679;28;20035;-61
2021/09/05 01:37:19;;;;;;;33.80;22.63;;;;;;;10.97;96.85;101748.63;2090707;28;20031;-60
2021/09/05 01:38:20;;;;;;;36.92;22.95;;;;;;;10.95;96.90;101745.22;2091349;28;20074;-60
2021/09/05 01:39:21;;;;;;;34.17;23.30;;;;;;;10.95;97.28;101746.06;2091293;28;20490;-60
2021/09/05 01:40:22;;;;;;;34.75;21.85;;;;;;;10.94;96.97;101748.72;2091253;28;20060;-61
2021/09/05 01:41:22;;;;;;;32.67;22.63;;;;;;;10.95;96.60;101750.44;2091219;28;20364;-60
2021/09/05 01:42:22;;;;;;;34.00;22.53;;;;;;;10.94;96.95;101749.56;2091230;28;20029;-60
2021/09/05 01:43:24;;;;;;;31.90;22.20;;;;;;;10.91;96.95;101754.00;2091227;28;20029;-60
2021/09/05 01:44:25;;;;;;;34.55;22.63;;;;;;;10.92;96.93;101755.75;2091250;28;20021;-61
2021/09/05 01:45:25;;;;;;;31.02;22.85;;;;;;;10.92;97.09;101753.13;2090615;28;20072;-60
2021/09/05 01:46:26;;;;;;;35.83;22.80;;;;;;;10.89;96.63;101754.09;2089835;28;20078;-60
2021/09/05 01:47:26;;;;;;;34.33;23.40;;;;;;;10.90;96.95;101754.94;2082349;28;20053;-61
2021/09/05 01:48:26;;;;;;;34.17;22.93;;;;;;;10.89;96.90;101759.31;2082448;28;20028;-60
2021/09/05 01:49:27;;;;;;;35.03;21.43;;;;;;;10.90;96.67;101757.53;2082386;28;20025;-61
2021/09/05 01:50:27;;;;;;;33.77;22.07;;;;;;;10.89;96.97;101759.31;2082419;28;20026;-60
2021/09/05 01:51:27;;;;;;;30.77;22.13;;;;;;;10.90;97.02;101757.53;2091149;28;20059;-60
2021/09/05 01:52:28;;;;;;;35.90;22.70;;;;;;;10.88;96.99;101759.34;2091161;28;20021;-61
2021/09/05 01:53:28;;;;;;;32.87;22.70;;;;;;;10.91;97.35;101767.06;2091145;28;20124;-60
2021/09/05 01:54:28;;;;;;;35.57;23.00;;;;;;;10.90;97.18;101768.84;2091189;28;20028;-61
2021/09/05 01:55:28;;;;;;;34.37;25.33;;;;;;;10.91;96.81;101767.06;2091184;28;20048;-60
2021/09/05 01:56:31;;;;;;;37.70;23.63;;;;;;;10.90;97.16;101763.63;2091263;28;20021;-60
2021/09/05 01:57:31;;;;;;;32.22;22.00;;;;;;;10.89;97.13;101756.69;2091114;28;20025;-60
2021/09/05 01:58:31;;;;;;;36.50;22.53;;;;;;;10.89;96.77;101766.28;2091149;28;20029;-59
2021/09/05 01:59:31;;;;;;;35.13;23.00;;;;;;;10.87;96.99;101761.09;2091213;28;20032;-61
2021/09/05 02:00:32;;;;;;;33.53;22.00;;;;;;;10.85;97.05;101769.88;2091206;28;20032;-60
2021/09/05 02:01:33;;;;;;;32.17;22.50;;;;;;;10.85;96.93;101762.91;2091130;28;20494;-60
2021/09/05 02:02:33;;;;;;;33.03;23.13;;;;;;;10.85;97.01;101765.53;2090456;28;20523;-60
2021/09/05 02:03:34;;;;;;;38.97;24.47;;;;;;;10.85;96.73;101755.09;2082260;28;20029;-60
2021/09/05 02:04:34;;;;;;;35.23;22.67;;;;;;;10.84;97.03;101769.00;2082316;28;20017;-60
2021/09/05 02:05:34;;;;;;;34.70;23.23;;;;;;;10.82;97.45;101765.59;2082083;28;20021;-61
2021/09/05 02:06:34;;;;;;;37.23;24.53;;;;;;;10.84;96.90;101768.19;2082269;28;20049;-60
2021/09/05 02:07:35;;;;;;;37.70;22.07;;;;;;;10.82;96.92;101763.00;2090997;28;20104;-59
2021/09/05 02:08:35;;;;;;;34.90;23.63;;;;;;;10.82;97.45;101756.00;2090453;28;20028;-60
2021/09/05 02:09:35;;;;;;;38.00;22.93;;;;;;;10.82;97.14;101771.66;2090555;28;20036;-60
2021/09/05 02:10:35;;;;;;;38.70;25.87;;;;;;;10.82;97.28;101769.06;2091098;28;20021;-60
2021/09/05 02:11:35;;;;;;;35.40;23.10;;;;;;;10.81;97.68;101767.34;2091055;28;20103;-60
2021/09/05 02:12:36;;;;;;;37.40;21.63;;;;;;;10.79;97.00;101774.38;2091019;28;20020;-59
2021/09/05 02:13:36;;;;;;;34.17;22.43;;;;;;;10.75;97.03;101775.38;2090360;28;20033;-59
2021/09/05 02:14:36;;;;;;;35.80;23.43;;;;;;;10.76;97.32;101776.22;2090414;28;20024;-61
2021/09/05 02:15:37;;;;;;;33.60;22.27;;;;;;;10.75;97.32;101779.72;2091032;28;20053;-60
2021/09/05 02:16:37;;;;;;;35.20;24.20;;;;;;;10.75;96.76;101779.72;2090904;28;20049;-60
2021/09/05 02:17:37;;;;;;;34.77;22.83;;;;;;;10.75;97.03;101780.59;2091004;28;20032;-60
2021/09/05 02:18:37;;;;;;;32.97;22.77;;;;;;;10.75;97.18;101777.13;2091041;28;20477;-60
2021/09/05 02:19:38;;;;;;;30.87;22.40;;;;;;;10.73;97.19;101781.50;2091121;28;20029;-60
2021/09/05 02:20:38;;;;;;;34.80;23.00;;;;;;;10.72;96.84;101783.28;2090927;28;20036;-60
2021/09/05 02:21:38;;;;;;;31.70;22.47;;;;;;;10.69;97.27;101781.63;2091017;28;20025;-60
2021/09/05 02:22:40;;;;;;;34.90;24.20;;;;;;;10.71;97.10;101783.31;2091023;28;20494;-60
2021/09/05 02:23:40;;;;;;;31.50;22.08;;;;;;;10.68;97.67;101781.66;2090913;28;20105;-60
2021/09/05 02:24:41;;;;;;;35.67;22.53;;;;;;;10.68;97.03;101784.28;2091004;28;20028;-59
2021/09/05 02:25:41;;;;;;;33.37;21.43;;;;;;;10.66;97.16;101786.94;2091000;28;20024;-60
2021/09/05 02:26:41;;;;;;;30.57;22.10;;;;;;;10.68;97.42;101784.28;2090885;28;20032;-60
2021/09/05 02:27:42;;;;;;;33.43;21.37;;;;;;;10.68;97.01;101789.50;2090872;28;20025;-60
2021/09/05 02:28:43;;;;;;;33.67;23.27;;;;;;;10.68;97.48;101781.66;2090928;28;20109;-60
2021/09/05 02:29:43;;;;;;;30.27;21.40;;;;;;;10.66;97.03;101773.00;2090903;28;20029;-60
2021/09/05 02:30:43;;;;;;;35.77;21.90;;;;;;;10.66;97.52;101780.84;2090907;28;20033;-60
2021/09/05 02:31:43;;;;;;;39.97;23.47;;;;;;;10.66;97.13;101773.00;2090928;28;20474;-60
2021/09/05 02:32:44;;;;;;;34.00;22.80;;;;;;;10.64;97.23;101777.44;2090860;28;20509;-60
2021/09/05 02:33:44;;;;;;;35.97;22.17;;;;;;;10.65;97.27;101779.13;2090867;28;20060;-60
2021/09/05 02:34:44;;;;;;;29.53;21.17;;;;;;;10.64;97.40;101774.81;2090189;28;20028;-60
2021/09/05 02:35:45;;;;;;;31.00;19.20;;;;;;;10.64;96.76;101782.66;2090295;28;20052;-61
2021/09/05 02:36:46;;;;;;;28.70;17.13;;;;;;;10.61;97.54;101777.50;2081978;28;20028;-60
2021/09/05 02:37:46;;;;;;;;;;;;;;;10.59;97.70;101774.94;2082439;28;20033;-60
2021/09/05 02:38:46;;;;;;;32.75;20.95;;;;;;;10.60;97.71;101778.41;2090900;28;19912;-60
2021/09/05 02:39:47;;;;;;;31.33;20.10;;;;;;;10.57;97.32;101776.72;2090792;28;20548;-60
2021/09/05 02:40:47;;;;;;;29.30;19.07;;;;;;;10.55;96.89;101779.38;2090211;28;20510;-60
2021/09/05 02:41:47;;;;;;;31.20;21.13;;;;;;;10.53;97.01;101781.19;2090191;28;20500;-61
2021/09/05 02:42:48;;;;;;;35.23;21.37;;;;;;;10.53;97.33;101780.31;2090790;28;20432;-60
2021/09/05 02:43:48;;;;;;;29.50;20.67;;;;;;;10.51;97.69;101772.53;2090785;28;20158;-61
2021/09/05 02:44:48;;;;;;;29.07;20.53;;;;;;;10.51;97.58;101780.34;2090801;28;20052;-60
2021/09/05 02:45:48;;;;;;;26.40;18.10;;;;;;;10.51;97.21;101785.56;2090823;28;20061;-60
2021/09/05 02:46:49;;;;;;;30.60;18.63;;;;;;;10.50;97.27;101781.25;2090717;28;20025;-60
2021/09/05 02:47:49;;;;;;;32.23;19.27;;;;;;;10.49;97.10;101769.13;2090736;28;20497;-60
2021/09/05 02:48:49;;;;;;;30.20;20.97;;;;;;;10.51;97.14;101774.28;2090088;28;20033;-60
2021/09/05 02:49:49;;;;;;;27.90;18.33;;;;;;;10.50;97.27;101776.03;2090135;28;20029;-60
2021/09/05 02:50:50;;;;;;;31.23;20.17;;;;;;;10.50;97.60;101770.81;2081830;28;20517;-62
2021/09/05 02:51:50;;;;;;;30.17;19.10;;;;;;;10.49;97.63;101774.34;2081875;28;20554;-60
2021/09/05 02:52:50;;;;;;;28.07;20.63;;;;;;;10.50;97.41;101773.44;2090674;28;20029;-60
2021/09/05 02:53:51;;;;;;;33.60;21.63;;;;;;;10.49;97.44;101771.72;2089942;28;20060;-61
2021/09/05 02:54:51;;;;;;;30.90;18.80;;;;;;;10.48;97.61;101775.25;2090124;28;20028;-59
2021/09/05 02:55:51;;;;;;;30.55;20.35;;;;;;;10.47;97.69;101775.28;2081812;28;20048;-59
2021/09/05 02:56:51;;;;;;;31.53;20.07;;;;;;;10.45;97.37;101771.84;2081856;28;20024;-60
2021/09/05 02:57:52;;;;;;;34.27;22.00;;;;;;;10.42;97.49;101772.75;2080922;28;20022;-60
2021/09/05 02:58:52;;;;;;;31.57;21.57;;;;;;;10.39;97.45;101771.09;2081492;28;20024;-60
2021/09/05 02:59:52;;;;;;;38.33;21.10;;;;;;;10.39;97.84;101770.22;2081828;28;20064;-60
2021/09/05 03:00:52;;;;;;;36.40;24.23;;;;;;;10.42;97.72;101770.13;2073596;28;20120;-60
2021/09/05 03:01:53;;;;;;;31.13;18.23;;;;;;;10.39;97.77;101775.44;2081746;28;20026;-61
2021/09/05 03:02:53;;;;;;;31.97;19.10;;;;;;;10.38;97.53;101766.78;2090633;28;20036;-61
2021/09/05 03:03:53;;;;;;;34.23;22.17;;;;;;;10.38;97.32;101764.16;2089942;28;20016;-61
2021/09/05 03:04:53;;;;;;;26.30;18.87;;;;;;;10.36;97.83;101767.69;2090040;28;20041;-60
2021/09/05 03:05:54;;;;;;;29.23;19.80;;;;;;;10.35;97.81;101772.06;2090505;28;20025;-61
2021/09/05 03:06:55;;;;;;;28.90;21.07;;;;;;;10.33;97.39;101773.84;2090566;28;20123;-61
2021/09/05 03:07:55;;;;;;;36.30;23.08;;;;;;;10.33;97.14;101768.63;2090652;28;20058;-60
2021/09/05 03:08:55;;;;;;;35.07;22.47;;;;;;;10.32;97.71;101766.91;2090558;28;20112;-61
2021/09/05 03:09:55;;;;;;;31.50;22.50;;;;;;;10.29;97.80;101773.09;2090586;28;20040;-60
2021/09/05 03:10:55;;;;;;;32.50;21.90;;;;;;;10.32;97.54;101766.91;2090569;28;20060;-61
2021/09/05 03:11:56;;;;;;;31.20;20.97;;;;;;;10.29;97.44;101770.47;2090540;28;20033;-61
2021/09/05 03:12:56;;;;;;;29.80;17.80;;;;;;;10.32;97.84;101766.91;2090452;28;20036;-61
2021/09/05 03:13:57;;;;;;;32.83;21.93;;;;;;;10.35;97.94;101772.06;2090570;28;20033;-60
2021/09/05 03:14:57;;;;;;;30.10;18.55;;;;;;;10.35;97.78;101771.19;2090560;28;20738;-61
2021/09/05 03:15:57;;;;;;;32.93;19.70;;;;;;;10.33;97.43;101767.78;2090544;28;20122;-61
2021/09/05 03:16:58;;;;;;;30.37;20.57;;;;;;;10.34;97.46;101774.72;2090457;28;20055;-60
2021/09/05 03:17:58;;;;;;;30.77;20.20;;;;;;;10.33;97.64;101780.84;2090481;28;20530;-61
2021/09/05 03:18:58;;;;;;;28.83;20.33;;;;;;;10.30;97.74;101774.78;2090575;28;20031;-60
2021/09/05 03:19:58;;;;;;;31.37;21.30;;;;;;;10.30;97.36;101772.19;2090483;28;20024;-61
2021/09/05 03:20:58;;;;;;;29.97;19.10;;;;;;;10.28;97.64;101771.38;2090449;28;20036;-63
2021/09/05 03:21:59;;;;;;;36.73;20.43;;;;;;;10.26;97.54;101782.72;2089801;28;20021;-61
2021/09/05 03:22:59;;;;;;;30.90;19.37;;;;;;;10.25;97.56;101791.44;2089958;28;20411;-61
2021/09/05 03:24:00;;;;;;;36.17;20.30;;;;;;;10.21;97.67;101779.38;2090644;28;20040;-64
2021/09/05 03:25:00;;;;;;;31.73;20.50;;;;;;;10.19;97.69;101782.03;2090528;28;20021;-64
2021/09/05 03:26:00;;;;;;;35.23;23.77;;;;;;;10.19;97.77;101782.03;2090436;28;20040;-64
2021/09/05 03:27:00;;;;;;;31.07;20.70;;;;;;;10.18;97.58;101780.31;2090496;28;20052;-65
2021/09/05 03:28:01;;;;;;;33.67;19.47;;;;;;;10.18;97.69;101782.94;2090347;28;20536;-64
2021/09/05 03:29:02;;;;;;;33.60;20.77;;;;;;;10.19;97.54;101782.03;2090478;28;20028;-64
2021/09/05 03:30:03;;;;;;;31.13;19.85;;;;;;;10.17;97.53;101783.84;2090370;28;20032;-64
2021/09/05 03:31:04;;;;;;;31.95;19.65;;;;;;;10.17;97.73;101782.06;2090443;28;20032;-65
2021/09/05 03:32:04;;;;;;;32.03;21.53;;;;;;;10.16;97.65;101784.72;2090449;28;20104;-64
2021/09/05 03:33:05;;;;;;;30.13;20.13;;;;;;;10.16;97.71;101784.72;2090413;28;20029;-65
2021/09/05 03:34:05;;;;;;;27.77;19.67;;;;;;;10.15;97.98;101783.88;2090421;28;20054;-64
2021/09/05 03:35:05;;;;;;;31.27;20.33;;;;;;;10.15;98.16;101781.28;2090416;28;20036;-63
2021/09/05 03:36:06;;;;;;;29.30;20.73;;;;;;;10.13;97.74;101782.22;2090452;28;20082;-64
2021/09/05 03:37:06;;;;;;;27.70;21.07;;;;;;;10.13;97.64;101782.22;2090448;28;20032;-64
2021/09/05 03:38:06;;;;;;;31.87;23.13;;;;;;;10.12;97.90;101781.34;2090399;28;20033;-64
2021/09/05 03:39:06;;;;;;;33.73;22.30;;;;;;;10.12;98.10;101785.69;2090400;28;20027;-65
2021/09/05 03:40:08;;;;;;;27.63;19.83;;;;;;;10.11;97.46;101781.38;2090366;28;20025;-64
2021/09/05 03:41:08;;;;;;;32.25;20.90;;;;;;;10.10;97.68;101779.66;2090347;28;20106;-64
2021/09/05 03:42:08;;;;;;;30.17;18.37;;;;;;;10.09;97.66;101784.03;2090539;28;20025;-64
2021/09/05 03:43:08;;;;;;;37.33;22.20;;;;;;;10.08;97.95;101784.06;2090372;28;20100;-64
2021/09/05 03:44:09;;;;;;;31.53;22.73;;;;;;;10.08;97.66;101778.84;2090369;28;20028;-64
2021/09/05 03:45:10;;;;;;;28.00;19.60;;;;;;;10.07;98.07;101774.53;2090337;28;20051;-64
2021/09/05 03:46:10;;;;;;;31.02;21.75;;;;;;;10.04;97.89;101773.72;2090198;28;20096;-65
2021/09/05 03:47:10;;;;;;;36.27;19.73;;;;;;;10.03;97.93;101782.41;2090272;28;20024;-64
2021/09/05 03:48:10;;;;;;;35.13;19.80;;;;;;;10.02;97.71;101770.28;2089656;28;20020;-65
2021/09/05 03:49:11;;;;;;;32.27;18.83;;;;;;;10.01;98.00;101781.63;2081394;28;20368;-64
2021/09/05 03:50:11;;;;;;;29.07;18.97;;;;;;;9.99;97.80;101780.78;2073168;28;20025;-65
2021/09/05 03:51:12;;;;;;;28.63;20.17;;;;;;;9.98;97.82;101778.22;2081466;28;20287;-64
2021/09/05 03:52:13;;;;;;;34.30;20.37;;;;;;;9.96;97.73;101780.03;2090215;28;20322;-65
2021/09/05 03:53:13;;;;;;;;;;;;;;;9.96;98.07;101780.84;2090739;28;20025;-64
2021/09/05 03:54:13;;;;;;;31.63;16.85;;;;;;;9.95;97.84;101784.38;2090213;28;19909;-65
2021/09/05 03:55:14;;;;;;;30.83;18.07;;;;;;;9.95;98.02;101779.16;2090289;28;20041;-64
2021/09/05 03:56:14;;;;;;;30.63;18.73;;;;;;;9.94;97.68;101781.78;2089549;28;20051;-65
2021/09/05 03:57:14;;;;;;;28.93;15.90;;;;;;;9.92;98.02;101774.88;2089644;28;20549;-64
2021/09/05 03:58:15;;;;;;;28.97;18.03;;;;;;;9.92;97.81;101785.31;2090269;28;20024;-64
2021/09/05 03:59:16;;;;;;;29.70;18.60;;;;;;;9.87;97.69;101776.75;2081248;28;20014;-65
2021/09/05 04:00:16;;;;;;;28.80;18.30;;;;;;;9.91;97.72;101780.13;2081366;28;20554;-64
2021/09/05 04:01:16;;;;;;;28.83;18.07;;;;;;;9.88;98.04;101777.59;2081291;28;20013;-64
2021/09/05 04:02:16;;;;;;;26.63;17.60;;;;;;;9.84;97.78;101779.41;2081399;28;20049;-64
2021/09/05 04:03:17;;;;;;;28.93;16.27;;;;;;;9.84;97.71;101778.56;2081299;28;20075;-65
2021/09/05 04:04:17;;;;;;;31.47;17.97;;;;;;;9.82;97.73;101772.53;2081399;28;20018;-64
2021/09/05 04:05:17;;;;;;;26.73;15.90;;;;;;;9.78;97.91;101775.22;2090180;28;20033;-65
2021/09/05 04:06:19;;;;;;;32.83;19.13;;;;;;;9.76;97.69;101778.75;2089979;28;20025;-65
2021/09/05 04:07:20;;;;;;;28.33;16.98;;;;;;;9.77;97.71;101786.53;2090171;28;20429;-64
2021/09/05 04:08:38;;;;;;;33.80;17.75;;;;;;;9.76;97.64;101783.97;2090281;28;20017;-64
2021/09/05 04:10:57;;;;;;;28.38;17.33;;;;;;;9.71;97.88;101786.69;2090158;28;20487;-65
2021/09/05 04:11:57;;;;;;;29.37;17.87;;;;;;;9.71;98.11;101781.47;2089448;28;20040;-64
2021/09/05 04:12:58;;;;;;;28.53;15.77;;;;;;;9.69;97.90;101782.41;2089566;28;20064;-64
2021/09/05 04:13:58;;;;;;;35.77;18.73;;;;;;;9.68;97.44;101781.53;2081251;28;20033;-64
2021/09/05 04:14:58;;;;;;;27.33;18.70;;;;;;;9.65;97.83;101782.47;2081271;28;20475;-65
2021/09/05 04:15:58;;;;;;;30.90;16.03;;;;;;;9.61;97.57;101770.41;2090021;28;20044;-64
2021/09/05 04:16:59;;;;;;;27.30;18.70;;;;;;;9.61;97.76;101779.97;2089988;28;20045;-65
2021/09/05 04:17:59;;;;;;;27.57;18.57;;;;;;;9.58;98.06;101780.06;2089316;28;20021;-64
2021/09/05 04:18:59;;;;;;;26.27;18.77;;;;;;;9.59;98.07;101773.94;2089563;28;20485;-65
2021/09/05 04:20:00;;;;;;;31.07;17.23;;;;;;;9.59;97.74;101781.75;2090085;28;20025;-65
2021/09/05 04:21:00;;;;;;;29.05;17.48;;;;;;;9.58;98.01;101774.84;2090027;28;20029;-65
2021/09/05 04:22:02;;;;;;;29.30;17.47;;;;;;;9.59;97.98;101776.53;2090129;28;20024;-64
2021/09/05 04:23:02;;;;;;;26.98;17.42;;;;;;;9.56;98.05;101781.81;2089981;28;20026;-64
2021/09/05 04:24:03;;;;;;;27.60;17.00;;;;;;;9.56;97.83;101784.44;2090074;28;20028;-68
2021/09/05 04:25:04;;;;;;;28.57;17.13;;;;;;;9.55;98.28;101782.72;2090050;28;20089;-65
2021/09/05 04:26:05;;;;;;;35.25;18.38;;;;;;;9.53;97.83;101780.16;2089970;28;20103;-65
2021/09/05 04:27:05;;;;;;;33.30;18.20;;;;;;;9.53;97.62;101781.00;2089435;28;20029;-65
2021/09/05 04:28:05;;;;;;;30.73;17.67;;;;;;;9.50;97.94;101786.28;2089517;28;20025;-65
2021/09/05 04:29:06;;;;;;;27.13;16.52;;;;;;;9.49;97.58;101787.19;2090077;28;20066;-65
2021/09/05 04:30:08;;;;;;;26.47;15.17;;;;;;;9.48;97.88;101788.06;2090183;28;20029;-65
2021/09/05 04:31:08;;;;;;;29.48;15.20;;;;;;;9.49;97.88;101788.94;2089356;28;20037;-65
2021/09/05 04:32:08;;;;;;;29.77;16.60;;;;;;;9.48;97.79;101795.03;2089519;28;20058;-65
2021/09/05 04:33:10;;;;;;;28.35;17.08;;;;;;;9.47;98.05;101794.16;2089981;28;20082;-65
2021/09/05 04:34:10;;;;;;;33.40;17.58;;;;;;;9.46;97.45;101786.38;2090097;28;20021;-65
2021/09/05 04:35:10;;;;;;;30.57;16.23;;;;;;;9.47;97.87;101788.09;2089999;28;20024;-65
2021/09/05 04:36:10;;;;;;;32.57;17.47;;;;;;;9.46;97.68;101792.47;2090177;28;20051;-65
2021/09/05 04:37:11;;;;;;;28.77;16.33;;;;;;;9.46;97.69;101787.25;2090059;28;20017;-64